createdAt,value
2016-06-02T00:01:17.754Z,18.27
2016-06-02T00:02:17.601Z,18.27
2016-06-02T00:03:17.791Z,18.32
2016-06-02T00:04:17.871Z,18.35
2016-06-02T00:05:17.827Z,18.35
2016-06-02T00:06:17.861Z,18.33
2016-06-02T00:07:17.895Z,18.37
2016-06-02T00:08:17.913Z,18.35
2016-06-02T00:09:17.870Z,18.33
2016-06-02T00:11:17.984Z,18.42
2016-06-02T00:12:18.017Z,18.39
2016-06-02T00:13:18.037Z,18.41
2016-06-02T00:14:18.054Z,18.5
2016-06-02T00:15:18.089Z,18.39
2016-06-02T00:16:18.106Z,18.57
2016-06-02T00:17:18.141Z,18.48
2016-06-02T00:18:18.159Z,18.57
2016-06-02T00:19:18.022Z,18.5
2016-06-02T00:20:18.055Z,18.41
2016-06-02T00:21:18.230Z,18.41
2016-06-02T00:22:32.453Z,18.48
2016-06-02T00:24:18.472Z,18.51
2016-06-02T00:25:18.334Z,18.48
2016-06-02T00:26:18.368Z,18.48
2016-06-02T00:27:32.405Z,18.39
2016-06-02T00:28:18.421Z,18.33
2016-06-02T00:29:18.423Z,18.26
2016-06-02T00:30:18.473Z,18.1
2016-06-02T00:31:18.475Z,18.14
2016-06-02T00:32:18.509Z,18.05
2016-06-02T00:33:18.371Z,18.1
2016-06-02T00:34:18.546Z,18.1
2016-06-02T00:35:18.565Z,18.1
2016-06-02T00:36:18.598Z,18.07
2016-06-02T00:38:18.494Z,18.02
2016-06-02T00:39:32.859Z,18.07
2016-06-02T00:40:18.859Z,18.08
2016-06-02T00:41:18.721Z,18.02
2016-06-02T00:42:18.739Z,17.95
2016-06-02T00:43:32.964Z,17.99
2016-06-02T00:44:18.792Z,17.96
2016-06-02T00:45:18.826Z,17.82
2016-06-02T00:46:18.844Z,17.78
2016-06-02T00:47:18.878Z,17.66
2016-06-02T00:48:18.896Z,17.66
2016-06-02T00:50:18.964Z,17.52
2016-06-02T00:51:18.967Z,17.59
2016-06-02T00:52:19.001Z,17.58
2016-06-02T00:53:18.863Z,17.48
2016-06-02T00:54:19.037Z,17.52
2016-06-02T00:55:19.947Z,17.4
2016-06-02T00:56:19.105Z,17.44
2016-06-02T00:57:33.313Z,17.33
2016-06-02T00:58:19.157Z,17.33
2016-06-02T00:59:33.350Z,17.41
2016-06-02T01:00:19.194Z,17.48
2016-06-02T01:01:19.275Z,17.36
2016-06-02T01:02:19.246Z,17.26
2016-06-02T01:03:19.280Z,17.23
2016-06-02T01:04:19.143Z,17.36
2016-06-02T01:05:19.316Z,17.28
2016-06-02T01:06:19.335Z,17.26
2016-06-02T01:07:19.369Z,17.21
2016-06-02T01:08:19.403Z,17.25
2016-06-02T01:09:33.596Z,17.31
2016-06-02T01:10:19.440Z,17.23
2016-06-02T01:11:19.317Z,17.28
2016-06-02T01:12:19.179Z,17.38
2016-06-02T01:13:19.510Z,17.28
2016-06-02T01:14:19.232Z,17.19
2016-06-02T01:15:33.753Z,17.16
2016-06-02T01:16:19.596Z,17.14
2016-06-02T01:17:19.599Z,17.08
2016-06-02T01:18:19.477Z,17.14
2016-06-02T01:19:19.651Z,17.19
2016-06-02T01:20:19.529Z,17.14
2016-06-02T01:21:19.704Z,17.25
2016-06-02T01:22:19.737Z,17.21
2016-06-02T01:23:33.790Z,17.07
2016-06-02T01:24:19.618Z,17.07
2016-06-02T01:25:20.168Z,16.97
2016-06-02T01:26:19.842Z,16.93
2016-06-02T01:27:19.845Z,16.91
2016-06-02T01:28:19.879Z,16.83
2016-06-02T01:29:19.756Z,16.88
2016-06-02T01:30:34.106Z,16.79
2016-06-02T01:31:19.950Z,16.82
2016-06-02T01:32:19.968Z,16.78
2016-06-02T01:33:20.002Z,16.66
2016-06-02T01:34:20.020Z,16.66
2016-06-02T01:35:20.038Z,16.68
2016-06-02T01:36:20.072Z,16.71
2016-06-02T01:38:20.109Z,16.71
2016-06-02T01:39:20.143Z,16.68
2016-06-02T01:41:20.196Z,16.61
2016-06-02T01:42:20.213Z,16.67
2016-06-02T01:43:20.232Z,16.7
2016-06-02T01:44:20.282Z,16.66
2016-06-02T01:45:20.284Z,16.64
2016-06-02T01:46:20.302Z,16.63
2016-06-02T01:47:20.336Z,16.71
2016-06-02T01:48:20.354Z,16.68
2016-06-02T01:49:20.373Z,16.66
2016-06-02T01:50:20.406Z,16.61
2016-06-02T01:51:20.284Z,16.7
2016-06-02T01:52:20.459Z,16.63
2016-06-02T01:53:20.478Z,16.61
2016-06-02T01:54:20.355Z,16.67
2016-06-02T01:55:21.155Z,16.7
2016-06-02T01:56:20.547Z,16.63
2016-06-02T01:57:20.567Z,16.63
2016-06-02T01:58:34.791Z,16.56
2016-06-02T01:59:20.619Z,16.46
2016-06-02T02:00:20.652Z,16.46
2016-06-02T02:01:20.671Z,16.52
2016-06-02T02:02:34.879Z,16.49
2016-06-02T02:03:20.722Z,16.45
2016-06-02T02:04:20.804Z,16.48
2016-06-02T02:07:20.671Z,16.49
2016-06-02T02:08:20.892Z,16.39
2016-06-02T02:09:20.864Z,16.31
2016-06-02T02:10:20.883Z,16.34
2016-06-02T02:11:20.916Z,16.25
2016-06-02T02:12:35.141Z,16.24
2016-06-02T02:13:20.954Z,16.27
2016-06-02T02:14:20.987Z,16.39
2016-06-02T02:15:21.004Z,16.45
2016-06-02T02:16:21.039Z,16.28
2016-06-02T02:17:21.057Z,16.31
2016-06-02T02:18:35.265Z,16.38
2016-06-02T02:19:21.094Z,16.24
2016-06-02T02:20:21.128Z,16.33
2016-06-02T02:21:21.145Z,16.42
2016-06-02T02:22:21.056Z,16.39
2016-06-02T02:23:21.198Z,16.3
2016-06-02T02:24:21.076Z,16.3
2016-06-02T02:25:36.035Z,16.28
2016-06-02T02:26:21.129Z,16.24
2016-06-02T02:27:21.302Z,16.21
2016-06-02T02:28:21.164Z,16.17
2016-06-02T02:29:21.340Z,16.11
2016-06-02T02:30:21.374Z,16.14
2016-06-02T02:31:21.391Z,16.09
2016-06-02T02:32:35.600Z,16.12
2016-06-02T02:33:21.460Z,16.08
2016-06-02T02:34:35.652Z,16.12
2016-06-02T02:35:21.324Z,16.02
2016-06-02T02:36:21.515Z,16.11
2016-06-02T02:37:21.533Z,16.08
2016-06-02T02:38:21.567Z,16.27
2016-06-02T02:39:21.585Z,16.3
2016-06-02T02:40:21.618Z,16.3
2016-06-02T02:41:35.671Z,16.17
2016-06-02T02:42:21.499Z,16.3
2016-06-02T02:43:35.707Z,16.31
2016-06-02T02:44:21.707Z,16.33
2016-06-02T02:45:21.742Z,16.3
2016-06-02T02:46:35.934Z,16.09
2016-06-02T02:47:21.778Z,16.12
2016-06-02T02:48:21.798Z,16.24
2016-06-02T02:49:21.815Z,16.2
2016-06-02T02:50:36.024Z,16.31
2016-06-02T02:51:21.712Z,16.17
2016-06-02T02:52:21.901Z,16.14
2016-06-02T02:53:21.920Z,16.09
2016-06-02T02:54:21.797Z,16
2016-06-02T02:55:22.222Z,16.11
2016-06-02T02:56:21.975Z,16.07
2016-06-02T02:57:36.042Z,16.08
2016-06-02T02:58:22.027Z,16.07
2016-06-02T02:59:36.251Z,16.07
2016-06-02T03:00:21.923Z,16.05
2016-06-02T03:02:36.322Z,16.05
2016-06-02T03:03:22.150Z,15.97
2016-06-02T03:04:22.184Z,15.93
2016-06-02T03:05:36.391Z,16
2016-06-02T03:06:22.220Z,15.97
2016-06-02T03:08:22.272Z,15.87
2016-06-02T03:09:22.307Z,15.89
2016-06-02T03:10:22.466Z,15.93
2016-06-02T03:12:22.377Z,15.92
2016-06-02T03:13:22.396Z,15.97
2016-06-02T03:14:22.274Z,16.04
2016-06-02T03:15:22.291Z,15.97
2016-06-02T03:17:22.500Z,16.02
2016-06-02T03:18:36.692Z,16.14
2016-06-02T03:19:22.380Z,16.08
2016-06-02T03:20:22.570Z,16.08
2016-06-02T03:21:22.417Z,16.09
2016-06-02T03:22:22.607Z,16.15
2016-06-02T03:23:22.641Z,16.11
2016-06-02T03:24:22.659Z,16.09
2016-06-02T03:25:22.803Z,16.17
2016-06-02T03:26:22.711Z,16.21
2016-06-02T03:27:22.573Z,16.24
2016-06-02T03:28:22.592Z,16.27
2016-06-02T03:29:22.791Z,16.3
2016-06-02T03:30:22.553Z,16.35
2016-06-02T03:32:22.937Z,16.23
2016-06-02T03:33:37.196Z,16.27
2016-06-02T03:34:22.868Z,16.25
2016-06-02T03:35:23.069Z,16.25
2016-06-02T03:36:23.096Z,16.28
2016-06-02T03:37:37.338Z,16.27
2016-06-02T03:38:23.166Z,16.23
2016-06-02T03:39:23.189Z,16.14
2016-06-02T03:40:23.397Z,16.09
2016-06-02T03:41:23.247Z,16.21
2016-06-02T03:42:23.268Z,16.21
2016-06-02T03:43:23.289Z,16.14
2016-06-02T03:44:23.324Z,16.12
2016-06-02T03:45:23.344Z,16.11
2016-06-02T03:46:23.379Z,16.09
2016-06-02T03:47:37.585Z,16.12
2016-06-02T03:48:23.434Z,16.09
2016-06-02T03:49:23.452Z,16.14
2016-06-02T03:50:23.487Z,16.15
2016-06-02T03:51:23.490Z,16.14
2016-06-02T03:52:23.508Z,16.21
2016-06-02T03:53:37.730Z,16.21
2016-06-02T03:54:23.405Z,16.28
2016-06-02T03:55:23.330Z,16.25
2016-06-02T03:56:23.473Z,16.25
2016-06-02T03:57:23.649Z,16.27
2016-06-02T03:58:23.668Z,16.28
2016-06-02T03:59:23.686Z,16.35
2016-06-02T04:00:23.704Z,16.41
2016-06-02T04:02:23.757Z,16.28
2016-06-02T04:03:23.775Z,16.38
2016-06-02T04:04:23.809Z,16.41
2016-06-02T04:05:38.014Z,16.45
2016-06-02T04:06:23.861Z,16.38
2016-06-02T04:08:23.898Z,16.41
2016-06-02T04:09:38.103Z,16.39
2016-06-02T04:10:24.294Z,16.46
2016-06-02T04:11:23.968Z,16.43
2016-06-02T04:12:24.002Z,16.49
2016-06-02T04:13:24.019Z,16.52
2016-06-02T04:14:24.038Z,16.43
2016-06-02T04:15:24.072Z,16.52
2016-06-02T04:16:24.091Z,16.42
2016-06-02T04:17:38.296Z,16.5
2016-06-02T04:18:24.143Z,16.46
2016-06-02T04:19:24.177Z,16.46
2016-06-02T04:20:38.367Z,16.49
2016-06-02T04:21:24.213Z,16.5
2016-06-02T04:22:24.232Z,16.5
2016-06-02T04:23:24.266Z,16.58
2016-06-02T04:24:24.284Z,16.64
2016-06-02T04:25:38.349Z,16.71
2016-06-02T04:26:24.337Z,16.67
2016-06-02T04:27:24.198Z,16.66
2016-06-02T04:28:24.217Z,16.63
2016-06-02T04:29:24.423Z,16.78
2016-06-02T04:30:24.426Z,16.71
2016-06-02T04:31:24.288Z,16.73
2016-06-02T04:32:24.509Z,16.75
2016-06-02T04:33:24.495Z,16.75
2016-06-02T04:34:24.530Z,16.68
2016-06-02T04:35:24.548Z,16.68
2016-06-02T04:36:38.753Z,16.68
2016-06-02T04:37:24.600Z,16.68
2016-06-02T04:39:24.637Z,16.66
2016-06-02T04:40:38.858Z,16.63
2016-06-02T04:41:24.689Z,16.61
2016-06-02T04:42:24.723Z,16.64
2016-06-02T04:43:24.742Z,16.67
2016-06-02T04:44:24.775Z,16.61
2016-06-02T04:45:24.794Z,16.73
2016-06-02T04:46:24.812Z,16.66
2016-06-02T04:47:24.831Z,16.68
2016-06-02T04:48:24.864Z,16.68
2016-06-02T04:49:24.742Z,16.71
2016-06-02T04:50:24.916Z,16.78
2016-06-02T04:51:39.122Z,16.85
2016-06-02T04:52:24.968Z,16.89
2016-06-02T04:53:24.987Z,16.91
2016-06-02T04:54:39.740Z,16.88
2016-06-02T04:55:25.024Z,16.82
2016-06-02T04:56:25.042Z,16.93
2016-06-02T04:57:25.076Z,16.88
2016-06-02T04:58:25.095Z,16.89
2016-06-02T04:59:25.143Z,16.89
2016-06-02T05:00:25.146Z,16.91
2016-06-02T05:01:25.181Z,16.96
2016-06-02T05:03:25.249Z,17.01
2016-06-02T05:04:25.251Z,17.06
2016-06-02T05:05:25.270Z,17.11
2016-06-02T05:06:25.287Z,17.08
2016-06-02T05:07:39.494Z,17.16
2016-06-02T05:08:25.230Z,17.18
2016-06-02T05:09:25.202Z,17.22
2016-06-02T05:10:25.908Z,17.51
2016-06-02T05:11:25.411Z,17.72
2016-06-02T05:12:39.616Z,17.96
2016-06-02T05:13:25.306Z,18.02
2016-06-02T05:14:25.481Z,18.14
2016-06-02T05:15:25.500Z,18.25
2016-06-02T05:16:25.377Z,18.41
2016-06-02T05:17:25.567Z,18.39
2016-06-02T05:19:25.620Z,18.51
2016-06-02T05:20:25.638Z,18.58
2016-06-02T05:21:25.656Z,18.57
2016-06-02T05:22:25.519Z,18.65
2016-06-02T05:23:25.552Z,18.72
2016-06-02T05:24:30.336Z,18.81
2016-06-02T05:25:26.198Z,18.82
2016-06-02T05:26:25.795Z,18.78
2016-06-02T05:27:25.813Z,18.75
2016-06-02T05:28:39.863Z,18.7
2016-06-02T05:29:25.849Z,18.69
2016-06-02T05:30:25.712Z,18.65
2016-06-02T05:32:25.936Z,18.54
2016-06-02T05:34:25.973Z,18.66
2016-06-02T05:35:26.007Z,18.47
2016-06-02T05:36:26.009Z,18.5
2016-06-02T05:37:40.231Z,18.42
2016-06-02T05:38:26.078Z,18.35
2016-06-02T05:39:26.095Z,18.27
2016-06-02T05:40:25.973Z,18.33
2016-06-02T05:41:40.336Z,18.29
2016-06-02T05:42:26.181Z,18.32
2016-06-02T05:43:26.044Z,18.27
2016-06-02T05:44:40.405Z,18.36
2016-06-02T05:45:26.080Z,18.45
2016-06-02T05:46:26.269Z,18.41
2016-06-02T05:47:26.133Z,18.47
2016-06-02T05:48:26.322Z,18.39
2016-06-02T05:49:26.341Z,18.48
2016-06-02T05:50:26.375Z,18.54
2016-06-02T05:51:26.393Z,18.54
2016-06-02T05:52:26.411Z,18.58
2016-06-02T05:53:26.273Z,18.58
2016-06-02T05:54:26.464Z,18.65
2016-06-02T05:55:26.326Z,18.63
2016-06-02T05:56:26.501Z,18.63
2016-06-02T05:57:26.534Z,18.72
2016-06-02T05:58:26.568Z,18.73
2016-06-02T05:59:26.587Z,18.78
2016-06-02T06:00:40.793Z,18.78
2016-06-02T06:01:26.639Z,18.94
2016-06-02T06:02:26.501Z,19.07
2016-06-02T06:03:26.676Z,19.14
2016-06-02T06:05:26.743Z,19.36
2016-06-02T06:06:26.745Z,19.59
2016-06-02T06:07:26.796Z,19.61
2016-06-02T06:08:26.814Z,19.68
2016-06-02T06:09:26.832Z,19.74
2016-06-02T06:10:27.445Z,19.78
2016-06-02T06:11:41.087Z,19.81
2016-06-02T06:12:26.903Z,19.87
2016-06-02T06:13:26.937Z,20.05
2016-06-02T06:14:26.955Z,20.21
2016-06-02T06:15:41.177Z,20.42
2016-06-02T06:16:27.023Z,20.58
2016-06-02T06:17:27.025Z,20.57
2016-06-02T06:18:27.060Z,20.73
2016-06-02T06:19:27.078Z,20.88
2016-06-02T06:20:27.112Z,21.19
2016-06-02T06:21:27.147Z,21.37
2016-06-02T06:22:27.163Z,21.71
2016-06-02T06:23:27.183Z,22.73
2016-06-02T06:24:27.061Z,23.72
2016-06-02T06:25:27.188Z,24.57
2016-06-02T06:26:41.457Z,25.83
2016-06-02T06:27:27.303Z,26.2
2016-06-02T06:28:41.508Z,27.12
2016-06-02T06:29:27.199Z,27.66
2016-06-02T06:30:27.374Z,28.34
2016-06-02T06:31:27.407Z,28.55
2016-06-02T06:32:27.441Z,28.81
2016-06-02T06:33:27.460Z,28.88
2016-06-02T06:34:27.493Z,28.83
2016-06-02T06:35:27.371Z,28.81
2016-06-02T06:37:27.596Z,29.43
2016-06-02T06:38:27.614Z,29.6
2016-06-02T06:39:27.663Z,29.51
2016-06-02T06:40:28.462Z,29.45
2016-06-02T06:41:27.700Z,29.6
2016-06-02T06:42:27.734Z,29.79
2016-06-02T06:43:27.783Z,30.01
2016-06-02T06:44:41.989Z,30.65
2016-06-02T06:45:27.835Z,31.06
2016-06-02T06:46:42.057Z,30.92
2016-06-02T06:47:42.075Z,31.34
2016-06-02T06:48:27.922Z,31.43
2016-06-02T06:49:27.955Z,31.65
2016-06-02T06:50:28.005Z,31.95
2016-06-02T06:51:28.024Z,32.1
2016-06-02T06:52:28.057Z,32.15
2016-06-02T06:53:28.107Z,31.76
2016-06-02T06:54:28.125Z,32.21
2016-06-02T06:55:28.175Z,31.78
2016-06-02T06:56:28.208Z,31.54
2016-06-02T06:57:28.227Z,31.48
2016-06-02T06:58:28.104Z,31.58
2016-06-02T06:59:28.138Z,31.61
2016-06-02T07:00:28.344Z,31.48
2016-06-02T07:01:28.379Z,31.68
2016-06-02T07:02:28.256Z,31.86
2016-06-02T07:03:42.618Z,32.21
2016-06-02T07:04:28.465Z,32.51
2016-06-02T07:05:28.514Z,32.41
2016-06-02T07:06:28.548Z,32.47
2016-06-02T07:08:28.600Z,32.67
2016-06-02T07:09:28.634Z,32.82
2016-06-02T07:10:42.887Z,32.5
2016-06-02T07:12:42.940Z,32.35
2016-06-02T07:13:42.973Z,32.21
2016-06-02T07:14:28.850Z,32.5
2016-06-02T07:15:43.042Z,32.77
2016-06-02T07:16:28.887Z,32.92
2016-06-02T07:17:28.922Z,33
2016-06-02T07:18:28.956Z,33.01
2016-06-02T07:19:43.193Z,32.33
2016-06-02T07:20:28.882Z,32.29
2016-06-02T07:21:29.089Z,31.95
2016-06-02T07:22:29.108Z,32.23
2016-06-02T07:23:28.985Z,32.19
2016-06-02T07:24:29.175Z,32.77
2016-06-02T07:25:29.287Z,32.74
2016-06-02T07:26:29.243Z,32.75
2016-06-02T07:27:29.277Z,32.67
2016-06-02T07:28:29.327Z,32.67
2016-06-02T07:29:29.360Z,32.67
2016-06-02T07:30:29.379Z,33.14
2016-06-02T07:31:29.428Z,33.47
2016-06-02T07:32:43.649Z,33.16
2016-06-02T07:33:29.512Z,33.45
2016-06-02T07:34:29.530Z,33.78
2016-06-02T07:35:43.752Z,33.71
2016-06-02T07:36:29.441Z,33.97
2016-06-02T07:37:29.648Z,33.71
2016-06-02T07:38:29.681Z,33.15
2016-06-02T07:39:29.762Z,32.87
2016-06-02T07:40:30.452Z,33.26
2016-06-02T07:41:29.643Z,33.53
2016-06-02T07:42:29.817Z,33.51
2016-06-02T07:43:29.851Z,33.49
2016-06-02T07:44:29.744Z,33.6
2016-06-02T07:45:29.934Z,33.32
2016-06-02T07:46:30.000Z,33.39
2016-06-02T07:47:30.018Z,33.34
2016-06-02T07:48:44.224Z,33.5
2016-06-02T07:49:30.086Z,33.51
2016-06-02T07:50:44.308Z,33.42
2016-06-02T07:51:30.138Z,33.18
2016-06-02T07:52:30.188Z,32.48
2016-06-02T07:53:30.237Z,31.46
2016-06-02T07:54:30.256Z,31.51
2016-06-02T07:55:30.524Z,32.07
2016-06-02T07:56:30.324Z,32.37
2016-06-02T07:58:30.407Z,32.37
2016-06-02T07:59:30.300Z,32.3
2016-06-02T08:00:30.163Z,32.6
2016-06-02T08:01:30.213Z,33.04
2016-06-02T08:02:30.402Z,33.45
2016-06-02T08:03:30.592Z,33.42
2016-06-02T08:04:30.626Z,33.87
2016-06-02T08:05:30.660Z,33.78
2016-06-02T08:06:30.537Z,33.88
2016-06-02T08:07:30.729Z,33.75
2016-06-02T08:08:30.606Z,33.32
2016-06-02T08:09:31.045Z,33.22
2016-06-02T08:10:45.033Z,33.45
2016-06-02T08:11:30.879Z,33.59
2016-06-02T08:13:30.948Z,33.84
2016-06-02T08:14:30.981Z,33.31
2016-06-02T08:15:45.217Z,32.62
2016-06-02T08:16:31.048Z,32.84
2016-06-02T08:17:31.098Z,33.28
2016-06-02T08:18:45.320Z,33
2016-06-02T08:19:31.166Z,32.94
2016-06-02T08:20:31.217Z,32.92
2016-06-02T08:21:31.250Z,33.28
2016-06-02T08:22:45.472Z,33.6
2016-06-02T08:23:31.161Z,33.56
2016-06-02T08:24:31.414Z,32.97
2016-06-02T08:25:31.261Z,32.25
2016-06-02T08:26:31.420Z,32.23
2016-06-02T08:27:31.453Z,32.92
2016-06-02T08:28:31.503Z,33.12
2016-06-02T08:29:31.521Z,33.59
2016-06-02T08:30:31.586Z,33.98
2016-06-02T08:31:31.449Z,34.28
2016-06-02T08:34:45.894Z,34.09
2016-06-02T08:35:31.741Z,33.86
2016-06-02T08:36:31.775Z,34.58
2016-06-02T08:37:31.809Z,34.92
2016-06-02T08:38:46.045Z,34.84
2016-06-02T08:39:31.751Z,34.59
2016-06-02T08:40:31.629Z,34.88
2016-06-02T08:42:32.009Z,34.27
2016-06-02T08:43:32.028Z,34.7
2016-06-02T08:44:32.061Z,34.62
2016-06-02T08:45:32.095Z,34.88
2016-06-02T08:46:31.989Z,34.8
2016-06-02T08:47:32.179Z,34.75
2016-06-02T08:48:32.213Z,34.56
2016-06-02T08:49:32.247Z,34.37
2016-06-02T08:50:32.281Z,34.19
2016-06-02T08:51:46.502Z,33.94
2016-06-02T08:52:32.365Z,33.73
2016-06-02T08:53:32.398Z,33.22
2016-06-02T08:54:46.464Z,32
2016-06-02T08:55:34.060Z,31.88
2016-06-02T08:56:32.500Z,32.06
2016-06-02T08:57:32.533Z,32.26
2016-06-02T08:58:32.568Z,32.74
2016-06-02T08:59:32.461Z,32.82
2016-06-02T09:00:32.667Z,32.84
2016-06-02T09:01:32.686Z,33.11
2016-06-02T09:02:32.719Z,32.82
2016-06-02T09:03:32.754Z,32.48
2016-06-02T09:04:32.787Z,31.85
2016-06-02T09:05:32.838Z,31.16
2016-06-02T09:06:32.543Z,31.09
2016-06-02T09:07:32.890Z,30.98
2016-06-02T09:08:32.768Z,30.82
2016-06-02T09:09:32.957Z,30.77
2016-06-02T09:10:47.413Z,30.77
2016-06-02T09:11:33.041Z,31.16
2016-06-02T09:12:33.106Z,31.35
2016-06-02T09:13:33.092Z,31.56
2016-06-02T09:14:33.126Z,31.46
2016-06-02T09:15:33.005Z,31.61
2016-06-02T09:16:33.195Z,32.35
2016-06-02T09:17:33.245Z,32.85
2016-06-02T09:18:33.278Z,33.21
2016-06-02T09:19:33.312Z,33.75
2016-06-02T09:20:33.346Z,33.56
2016-06-02T09:21:33.380Z,33.5
2016-06-02T09:22:47.587Z,33.01
2016-06-02T09:23:33.448Z,32.74
2016-06-02T09:24:33.561Z,31.89
2016-06-02T09:25:47.547Z,31.76
2016-06-02T09:26:33.549Z,31.62
2016-06-02T09:27:33.584Z,31.95
2016-06-02T09:28:33.618Z,32.04
2016-06-02T09:29:33.652Z,32.06
2016-06-02T09:30:33.686Z,31.68
2016-06-02T09:31:33.719Z,31.47
2016-06-02T09:32:33.753Z,31.01
2016-06-02T09:33:33.631Z,31.44
2016-06-02T09:34:33.821Z,31.5
2016-06-02T09:35:33.855Z,31.14
2016-06-02T09:36:48.077Z,30.8
2016-06-02T09:38:33.957Z,30.46
2016-06-02T09:39:34.007Z,30.24
2016-06-02T09:40:39.415Z,30.08
2016-06-02T09:41:34.060Z,29.95
2016-06-02T09:42:34.093Z,29.79
2016-06-02T09:43:34.112Z,29.76
2016-06-02T09:44:34.145Z,30.38
2016-06-02T09:45:34.179Z,30.38
2016-06-02T09:46:34.228Z,31.02
2016-06-02T09:47:34.263Z,30.83
2016-06-02T09:48:34.281Z,30.1
2016-06-02T09:49:34.315Z,29.83
2016-06-02T09:50:34.193Z,29.83
2016-06-02T09:51:34.226Z,29.86
2016-06-02T09:52:34.261Z,30.29
2016-06-02T09:53:34.450Z,31.09
2016-06-02T09:54:34.329Z,30.89
2016-06-02T09:55:35.112Z,29.85
2016-06-02T09:56:34.553Z,29.7
2016-06-02T09:57:48.758Z,29.49
2016-06-02T09:58:34.605Z,29.95
2016-06-02T09:59:34.639Z,30.55
2016-06-02T10:00:34.673Z,30.95
2016-06-02T10:01:34.706Z,31.65
2016-06-02T10:02:34.584Z,32.22
2016-06-02T10:03:34.775Z,32.47
2016-06-02T10:04:34.808Z,32.33
2016-06-02T10:05:34.842Z,31.92
2016-06-02T10:06:49.064Z,30.97
2016-06-02T10:07:34.910Z,30.42
2016-06-02T10:08:34.944Z,30
2016-06-02T10:09:34.962Z,29.64
2016-06-02T10:10:35.247Z,29.37
2016-06-02T10:11:35.030Z,29.64
2016-06-02T10:12:35.079Z,30.42
2016-06-02T10:13:49.332Z,30.88
2016-06-02T10:14:34.976Z,30.84
2016-06-02T10:15:35.166Z,31.04
2016-06-02T10:16:35.200Z,30.91
2016-06-02T10:17:35.078Z,30.8
2016-06-02T10:18:35.251Z,30.45
2016-06-02T10:19:35.302Z,29.53
2016-06-02T10:20:35.179Z,28.95
2016-06-02T10:21:35.214Z,28.77
2016-06-02T10:22:35.388Z,28.7
2016-06-02T10:23:35.423Z,28.48
2016-06-02T10:24:35.315Z,28.4
2016-06-02T10:25:35.928Z,28.34
2016-06-02T10:26:35.367Z,28.54
2016-06-02T10:27:49.731Z,29.14
2016-06-02T10:28:35.575Z,29.52
2016-06-02T10:29:49.814Z,29.42
2016-06-02T10:30:35.644Z,29.27
2016-06-02T10:32:35.711Z,29.64
2016-06-02T10:35:35.798Z,29.58
2016-06-02T10:36:35.847Z,29.23
2016-06-02T10:37:35.866Z,29.33
2016-06-02T10:38:50.088Z,29.34
2016-06-02T10:39:36.043Z,29.36
2016-06-02T10:40:35.827Z,29.42
2016-06-02T10:41:36.001Z,29.39
2016-06-02T10:42:36.020Z,29.18
2016-06-02T10:43:36.054Z,28.98
2016-06-02T10:44:35.947Z,29.12
2016-06-02T10:45:50.309Z,28.89
2016-06-02T10:46:36.156Z,29.06
2016-06-02T10:47:36.190Z,29.24
2016-06-02T10:48:36.224Z,29.36
2016-06-02T10:49:36.257Z,29.24
2016-06-02T10:50:36.276Z,29.3
2016-06-02T10:51:36.326Z,29.31
2016-06-02T10:52:36.344Z,29.18
2016-06-02T10:53:36.378Z,29.28
2016-06-02T10:54:36.771Z,28.95
2016-06-02T10:55:36.601Z,28.73
2016-06-02T10:56:50.651Z,28.51
2016-06-02T10:57:36.341Z,28.55
2016-06-02T10:58:36.532Z,28.24
2016-06-02T10:59:36.550Z,28
2016-06-02T11:00:50.772Z,27.74
2016-06-02T11:01:36.617Z,27.51
2016-06-02T11:02:36.495Z,27.36
2016-06-02T11:03:36.530Z,27.29
2016-06-02T11:04:36.564Z,27.28
2016-06-02T11:05:36.597Z,27.29
2016-06-02T11:06:36.460Z,27.44
2016-06-02T11:07:36.666Z,27.55
2016-06-02T11:08:36.856Z,27.54
2016-06-02T11:09:36.733Z,27.41
2016-06-02T11:10:36.766Z,27.25
2016-06-02T11:11:36.941Z,27.29
2016-06-02T11:12:51.163Z,27.4
2016-06-02T11:13:36.837Z,27.39
2016-06-02T11:14:37.028Z,27.29
2016-06-02T11:15:37.062Z,27.21
2016-06-02T11:16:36.924Z,27.22
2016-06-02T11:17:37.115Z,27.19
2016-06-02T11:18:37.149Z,27.25
2016-06-02T11:19:37.182Z,27.21
2016-06-02T11:20:37.200Z,27.03
2016-06-02T11:21:37.250Z,26.92
2016-06-02T11:22:37.268Z,26.92
2016-06-02T11:23:37.302Z,26.88
2016-06-02T11:24:37.367Z,26.75
2016-06-02T11:25:37.604Z,26.63
2016-06-02T11:27:37.422Z,26.45
2016-06-02T11:28:37.456Z,26.48
2016-06-02T11:29:37.475Z,26.4
2016-06-02T11:30:37.509Z,26.4
2016-06-02T11:31:37.527Z,26.44
2016-06-02T11:32:51.747Z,26.28
2016-06-02T11:33:37.595Z,26.21
2016-06-02T11:34:37.628Z,26.3
2016-06-02T11:35:37.647Z,26.36
2016-06-02T11:36:37.681Z,26.25
2016-06-02T11:37:37.714Z,26.21
2016-06-02T11:38:51.936Z,26.32
2016-06-02T11:39:37.642Z,26.45
2016-06-02T11:40:38.222Z,26.37
2016-06-02T11:41:37.835Z,26.48
2016-06-02T11:42:37.853Z,26.58
2016-06-02T11:44:37.921Z,26.88
2016-06-02T11:45:37.955Z,27.1
2016-06-02T11:46:37.974Z,27.18
2016-06-02T11:47:38.023Z,27.34
2016-06-02T11:48:52.213Z,27.47
2016-06-02T11:50:38.109Z,27.37
2016-06-02T11:51:38.127Z,27.19
2016-06-02T11:52:38.162Z,27.13
2016-06-02T11:53:38.024Z,26.97
2016-06-02T11:54:39.089Z,26.81
2016-06-02T11:55:38.998Z,26.52
2016-06-02T11:56:38.282Z,26.36
2016-06-02T11:57:38.315Z,26.29
2016-06-02T11:59:38.383Z,25.94
2016-06-02T12:00:38.231Z,25.94
2016-06-02T12:01:38.420Z,25.83
2016-06-02T12:02:38.298Z,25.92
2016-06-02T12:03:38.472Z,25.97
2016-06-02T12:04:52.694Z,26.2
2016-06-02T12:05:38.227Z,26.33
2016-06-02T12:06:38.417Z,26.17
2016-06-02T12:07:38.592Z,26.26
2016-06-02T12:08:38.627Z,26.47
2016-06-02T12:09:38.692Z,26.4
2016-06-02T12:10:38.882Z,26.62
2016-06-02T12:11:38.712Z,26.66
2016-06-02T12:12:38.747Z,26.51
2016-06-02T12:14:38.627Z,26.69
2016-06-02T12:15:38.817Z,26.75
2016-06-02T12:16:38.851Z,26.65
2016-06-02T12:17:38.885Z,26.72
2016-06-02T12:18:38.918Z,26.8
2016-06-02T12:20:53.002Z,26.5
2016-06-02T12:21:38.990Z,26.58
2016-06-02T12:22:38.867Z,26.54
2016-06-02T12:23:39.057Z,26.66
2016-06-02T12:24:40.029Z,26.67
2016-06-02T12:25:39.188Z,26.65
2016-06-02T12:26:39.143Z,26.67
2016-06-02T12:27:39.178Z,26.63
2016-06-02T12:28:39.196Z,26.62
2016-06-02T12:29:53.417Z,26.8
2016-06-02T12:30:39.264Z,26.99
2016-06-02T12:31:39.281Z,27.32
2016-06-02T12:32:39.317Z,27.67
2016-06-02T12:33:39.350Z,27.66
2016-06-02T12:34:39.237Z,27.69
2016-06-02T12:35:53.643Z,27.66
2016-06-02T12:36:39.501Z,27.7
2016-06-02T12:37:39.578Z,27.69
2016-06-02T12:38:39.624Z,27.51
2016-06-02T12:39:39.523Z,27.59
2016-06-02T12:40:39.864Z,27.74
2016-06-02T12:42:39.780Z,27.97
2016-06-02T12:43:39.824Z,28.07
2016-06-02T12:44:39.866Z,28.29
2016-06-02T12:45:39.747Z,28.43
2016-06-02T12:46:39.941Z,28.54
2016-06-02T12:47:39.806Z,28.62
2016-06-02T12:48:54.187Z,28.44
2016-06-02T12:49:40.021Z,28.48
2016-06-02T12:50:39.759Z,28.31
2016-06-02T12:51:40.106Z,28.12
2016-06-02T12:52:40.125Z,27.94
2016-06-02T12:53:40.145Z,27.7
2016-06-02T12:54:40.633Z,27.43
2016-06-02T12:55:40.074Z,27.27
2016-06-02T12:56:40.249Z,27.17
2016-06-02T12:57:40.283Z,27.12
2016-06-02T12:58:40.303Z,26.94
2016-06-02T12:59:40.320Z,26.92
2016-06-02T13:00:40.356Z,26.77
2016-06-02T13:01:40.390Z,26.8
2016-06-02T13:02:40.267Z,26.67
2016-06-02T13:03:54.629Z,26.47
2016-06-02T13:04:40.476Z,26.48
2016-06-02T13:05:40.510Z,26.6
2016-06-02T13:06:40.528Z,26.57
2016-06-02T13:07:54.750Z,26.57
2016-06-02T13:08:40.596Z,26.69
2016-06-02T13:09:41.802Z,26.75
2016-06-02T13:10:40.665Z,26.77
2016-06-02T13:11:40.698Z,26.81
2016-06-02T13:12:40.717Z,26.63
2016-06-02T13:13:40.751Z,26.44
2016-06-02T13:14:40.770Z,26.45
2016-06-02T13:15:40.647Z,26.47
2016-06-02T13:16:40.821Z,26.63
2016-06-02T13:18:40.889Z,26.75
2016-06-02T13:19:40.908Z,26.84
2016-06-02T13:20:40.941Z,26.69
2016-06-02T13:21:40.975Z,26.73
2016-06-02T13:22:41.009Z,26.77
2016-06-02T13:23:55.215Z,26.52
2016-06-02T13:24:41.061Z,26.54
2016-06-02T13:25:41.095Z,26.52
2016-06-02T13:26:41.129Z,26.63
2016-06-02T13:27:41.210Z,26.55
2016-06-02T13:28:55.213Z,26.62
2016-06-02T13:29:41.044Z,26.69
2016-06-02T13:30:55.421Z,26.4
2016-06-02T13:31:41.268Z,26.3
2016-06-02T13:32:41.146Z,26.02
2016-06-02T13:33:41.164Z,25.94
2016-06-02T13:34:41.338Z,25.98
2016-06-02T13:35:41.372Z,25.98
2016-06-02T13:37:41.440Z,26.01
2016-06-02T13:38:41.459Z,26.25